sensor_id;sensor_type;location;lat;lon;timestamp;temperature;humidity
3075;DHT22;1548;51.716;8.748;2022-12-13T00:00:17;-3.50;85.70
3075;DHT22;1548;51.716;8.748;2022-12-13T00:02:44;-3.50;85.80
3075;DHT22;1548;51.716;8.748;2022-12-13T00:05:11;-3.60;85.70
3075;DHT22;1548;51.716;8.748;2022-12-13T00:07:37;-3.60;85.80
3075;DHT22;1548;51.716;8.748;2022-12-13T00:10:04;-3.60;85.60
3075;DHT22;1548;51.716;8.748;2022-12-13T00:12:30;-3.60;85.70
3075;DHT22;1548;51.716;8.748;2022-12-13T00:14:58;-3.70;85.60
3075;DHT22;1548;51.716;8.748;2022-12-13T00:17:24;-3.70;85.70
3075;DHT22;1548;51.716;8.748;2022-12-13T00:19:49;-3.70;85.80
3075;DHT22;1548;51.716;8.748;2022-12-13T00:22:15;-3.70;85.70
3075;DHT22;1548;51.716;8.748;2022-12-13T00:24:41;-3.70;85.70
3075;DHT22;1548;51.716;8.748;2022-12-13T00:27:07;-3.80;85.70
3075;DHT22;1548;51.716;8.748;2022-12-13T00:29:33;-3.80;85.70
3075;DHT22;1548;51.716;8.748;2022-12-13T00:31:58;-3.70;85.80
3075;DHT22;1548;51.716;8.748;2022-12-13T00:34:25;-3.70;85.70
3075;DHT22;1548;51.716;8.748;2022-12-13T00:36:52;-3.70;85.80
3075;DHT22;1548;51.716;8.748;2022-12-13T00:39:18;-3.70;85.70
3075;DHT22;1548;51.716;8.748;2022-12-13T00:41:44;-3.80;85.70
3075;DHT22;1548;51.716;8.748;2022-12-13T00:44:11;-3.70;85.70
3075;DHT22;1548;51.716;8.748;2022-12-13T00:46:37;-3.70;85.70
3075;DHT22;1548;51.716;8.748;2022-12-13T00:49:04;-3.70;85.70
3075;DHT22;1548;51.716;8.748;2022-12-13T00:51:31;-3.70;85.80
3075;DHT22;1548;51.716;8.748;2022-12-13T00:53:58;-3.80;85.70
3075;DHT22;1548;51.716;8.748;2022-12-13T00:56:26;-3.80;85.60
3075;DHT22;1548;51.716;8.748;2022-12-13T00:58:53;-3.70;85.60
3075;DHT22;1548;51.716;8.748;2022-12-13T01:01:24;-3.70;85.70
3075;DHT22;1548;51.716;8.748;2022-12-13T01:03:54;-3.70;85.70
3075;DHT22;1548;51.716;8.748;2022-12-13T01:06:22;-3.80;85.60
3075;DHT22;1548;51.716;8.748;2022-12-13T01:08:49;-3.80;85.60
3075;DHT22;1548;51.716;8.748;2022-12-13T01:11:16;-3.90;85.60
3075;DHT22;1548;51.716;8.748;2022-12-13T01:13:42;-4.00;85.50
3075;DHT22;1548;51.716;8.748;2022-12-13T01:16:09;-4.00;85.50
3075;DHT22;1548;51.716;8.748;2022-12-13T01:18:35;-4.10;85.60
3075;DHT22;1548;51.716;8.748;2022-12-13T01:21:04;-4.10;85.50
3075;DHT22;1548;51.716;8.748;2022-12-13T01:23:31;-4.10;85.60
3075;DHT22;1548;51.716;8.748;2022-12-13T01:25:57;-4.10;85.70
3075;DHT22;1548;51.716;8.748;2022-12-13T01:28:23;-4.20;85.70
3075;DHT22;1548;51.716;8.748;2022-12-13T01:31:10;-4.20;85.60
3075;DHT22;1548;51.716;8.748;2022-12-13T01:33:37;-4.30;85.60
3075;DHT22;1548;51.716;8.748;2022-12-13T01:36:05;-4.30;85.70
3075;DHT22;1548;51.716;8.748;2022-12-13T01:38:32;-4.30;85.80
3075;DHT22;1548;51.716;8.748;2022-12-13T01:40:57;-4.40;85.80
3075;DHT22;1548;51.716;8.748;2022-12-13T01:43:27;-4.40;85.80
3075;DHT22;1548;51.716;8.748;2022-12-13T01:45:53;-4.50;85.70
3075;DHT22;1548;51.716;8.748;2022-12-13T01:48:23;-4.40;85.80
3075;DHT22;1548;51.716;8.748;2022-12-13T01:50:53;-4.40;85.80
3075;DHT22;1548;51.716;8.748;2022-12-13T01:53:23;-4.40;85.80
3075;DHT22;1548;51.716;8.748;2022-12-13T01:55:59;-4.40;85.90
3075;DHT22;1548;51.716;8.748;2022-12-13T01:58:26;-4.30;85.80
3075;DHT22;1548;51.716;8.748;2022-12-13T02:00:52;-4.40;85.70
3075;DHT22;1548;51.716;8.748;2022-12-13T02:03:20;-4.40;85.70
3075;DHT22;1548;51.716;8.748;2022-12-13T02:06:00;-4.40;85.70
3075;DHT22;1548;51.716;8.748;2022-12-13T02:08:26;-4.40;85.80
3075;DHT22;1548;51.716;8.748;2022-12-13T02:10:54;-4.40;85.80
3075;DHT22;1548;51.716;8.748;2022-12-13T02:13:20;-4.40;85.70
3075;DHT22;1548;51.716;8.748;2022-12-13T02:19:34;-4.50;85.70
3075;DHT22;1548;51.716;8.748;2022-12-13T02:30:31;-4.40;85.60
3075;DHT22;1548;51.716;8.748;2022-12-13T02:33:19;-4.50;85.80
3075;DHT22;1548;51.716;8.748;2022-12-13T02:38:24;-4.40;85.70
3075;DHT22;1548;51.716;8.748;2022-12-13T02:44:17;-4.40;85.70
3075;DHT22;1548;51.716;8.748;2022-12-13T02:47:05;-4.40;85.70
3075;DHT22;1548;51.716;8.748;2022-12-13T02:49:37;-4.40;85.70
3075;DHT22;1548;51.716;8.748;2022-12-13T02:52:06;-4.40;85.70
3075;DHT22;1548;51.716;8.748;2022-12-13T02:54:33;-4.50;85.70
3075;DHT22;1548;51.716;8.748;2022-12-13T02:56:59;-4.40;85.80
3075;DHT22;1548;51.716;8.748;2022-12-13T02:59:35;-4.40;85.70
3075;DHT22;1548;51.716;8.748;2022-12-13T03:08:08;-4.50;85.80
3075;DHT22;1548;51.716;8.748;2022-12-13T03:10:58;-4.50;85.80
3075;DHT22;1548;51.716;8.748;2022-12-13T03:13:53;-4.50;85.70
3075;DHT22;1548;51.716;8.748;2022-12-13T03:18:58;-4.50;85.70
3075;DHT22;1548;51.716;8.748;2022-12-13T03:21:25;-4.50;85.80
3075;DHT22;1548;51.716;8.748;2022-12-13T03:23:50;-4.50;85.80
3075;DHT22;1548;51.716;8.748;2022-12-13T03:26:21;-4.50;85.70
3075;DHT22;1548;51.716;8.748;2022-12-13T03:28:47;-4.50;85.70
3075;DHT22;1548;51.716;8.748;2022-12-13T03:31:13;-4.40;85.80
3075;DHT22;1548;51.716;8.748;2022-12-13T03:33:38;-4.40;85.80
3075;DHT22;1548;51.716;8.748;2022-12-13T03:36:04;-4.40;85.70
3075;DHT22;1548;51.716;8.748;2022-12-13T03:38:30;-4.40;85.70
3075;DHT22;1548;51.716;8.748;2022-12-13T03:41:02;-4.40;85.70
3075;DHT22;1548;51.716;8.748;2022-12-13T03:43:28;-4.50;85.60
3075;DHT22;1548;51.716;8.748;2022-12-13T03:45:54;-4.50;85.60
3075;DHT22;1548;51.716;8.748;2022-12-13T03:48:20;-4.50;85.70
3075;DHT22;1548;51.716;8.748;2022-12-13T03:50:46;-4.40;85.70
3075;DHT22;1548;51.716;8.748;2022-12-13T03:53:12;-4.50;85.70
3075;DHT22;1548;51.716;8.748;2022-12-13T03:55:38;-4.40;85.70
3075;DHT22;1548;51.716;8.748;2022-12-13T03:58:03;-4.40;85.60
3075;DHT22;1548;51.716;8.748;2022-12-13T04:00:29;-4.50;85.60
3075;DHT22;1548;51.716;8.748;2022-12-13T04:02:54;-4.50;85.70
3075;DHT22;1548;51.716;8.748;2022-12-13T04:05:20;-4.50;85.70
3075;DHT22;1548;51.716;8.748;2022-12-13T04:07:46;-4.40;85.60
3075;DHT22;1548;51.716;8.748;2022-12-13T04:10:12;-4.40;85.70
3075;DHT22;1548;51.716;8.748;2022-12-13T04:12:37;-4.50;85.60
3075;DHT22;1548;51.716;8.748;2022-12-13T04:15:22;-4.50;85.60
3075;DHT22;1548;51.716;8.748;2022-12-13T04:17:47;-4.50;85.60
3075;DHT22;1548;51.716;8.748;2022-12-13T04:20:13;-4.50;85.70
3075;DHT22;1548;51.716;8.748;2022-12-13T04:22:38;-4.60;85.50
3075;DHT22;1548;51.716;8.748;2022-12-13T04:25:04;-4.60;85.50
3075;DHT22;1548;51.716;8.748;2022-12-13T04:27:30;-4.70;85.80
3075;DHT22;1548;51.716;8.748;2022-12-13T04:29:56;-4.70;85.70
3075;DHT22;1548;51.716;8.748;2022-12-13T04:32:21;-4.70;85.60
3075;DHT22;1548;51.716;8.748;2022-12-13T04:34:47;-4.70;85.70
3075;DHT22;1548;51.716;8.748;2022-12-13T04:37:12;-4.70;85.60
3075;DHT22;1548;51.716;8.748;2022-12-13T04:39:38;-4.70;85.70
3075;DHT22;1548;51.716;8.748;2022-12-13T04:42:04;-4.60;85.70
3075;DHT22;1548;51.716;8.748;2022-12-13T04:44:30;-4.60;85.80
3075;DHT22;1548;51.716;8.748;2022-12-13T04:46:56;-4.60;85.70
3075;DHT22;1548;51.716;8.748;2022-12-13T04:49:22;-4.60;85.70
3075;DHT22;1548;51.716;8.748;2022-12-13T04:51:47;-4.70;85.60
3075;DHT22;1548;51.716;8.748;2022-12-13T04:54:13;-4.60;85.70
3075;DHT22;1548;51.716;8.748;2022-12-13T04:56:38;-4.70;85.60
3075;DHT22;1548;51.716;8.748;2022-12-13T04:59:04;-4.60;85.60
3075;DHT22;1548;51.716;8.748;2022-12-13T05:01:29;-4.60;85.60
3075;DHT22;1548;51.716;8.748;2022-12-13T05:03:55;-4.60;85.70
3075;DHT22;1548;51.716;8.748;2022-12-13T05:06:20;-4.60;85.60
3075;DHT22;1548;51.716;8.748;2022-12-13T05:08:46;-4.60;85.70
3075;DHT22;1548;51.716;8.748;2022-12-13T05:11:12;-4.50;85.60
3075;DHT22;1548;51.716;8.748;2022-12-13T05:13:38;-4.60;85.70
3075;DHT22;1548;51.716;8.748;2022-12-13T05:16:05;-4.60;85.60
3075;DHT22;1548;51.716;8.748;2022-12-13T05:18:32;-4.60;85.60
3075;DHT22;1548;51.716;8.748;2022-12-13T05:21:06;-4.70;85.50
3075;DHT22;1548;51.716;8.748;2022-12-13T05:23:32;-4.70;85.50
3075;DHT22;1548;51.716;8.748;2022-12-13T05:25:58;-4.70;85.60
3075;DHT22;1548;51.716;8.748;2022-12-13T05:28:25;-4.70;85.60
3075;DHT22;1548;51.716;8.748;2022-12-13T05:30:53;-4.70;85.60
3075;DHT22;1548;51.716;8.748;2022-12-13T05:33:19;-4.70;85.60
3075;DHT22;1548;51.716;8.748;2022-12-13T05:35:45;-4.70;85.70
3075;DHT22;1548;51.716;8.748;2022-12-13T05:38:11;-4.60;85.50
3075;DHT22;1548;51.716;8.748;2022-12-13T05:40:37;-4.60;85.70
3075;DHT22;1548;51.716;8.748;2022-12-13T05:43:02;-4.60;85.50
3075;DHT22;1548;51.716;8.748;2022-12-13T05:45:31;-4.60;85.60
3075;DHT22;1548;51.716;8.748;2022-12-13T05:47:57;-4.60;85.50
3075;DHT22;1548;51.716;8.748;2022-12-13T05:50:23;-4.60;85.50
3075;DHT22;1548;51.716;8.748;2022-12-13T05:52:49;-4.60;85.60
3075;DHT22;1548;51.716;8.748;2022-12-13T05:55:15;-4.60;85.50
3075;DHT22;1548;51.716;8.748;2022-12-13T05:57:40;-4.70;85.50
3075;DHT22;1548;51.716;8.748;2022-12-13T06:00:08;-4.70;85.50
3075;DHT22;1548;51.716;8.748;2022-12-13T06:02:38;-4.80;85.50
3075;DHT22;1548;51.716;8.748;2022-12-13T06:05:05;-4.80;85.50
3075;DHT22;1548;51.716;8.748;2022-12-13T06:07:31;-4.80;85.70
3075;DHT22;1548;51.716;8.748;2022-12-13T06:09:57;-4.80;85.60
3075;DHT22;1548;51.716;8.748;2022-12-13T06:12:22;-4.90;85.50
3075;DHT22;1548;51.716;8.748;2022-12-13T06:14:48;-4.80;85.60
3075;DHT22;1548;51.716;8.748;2022-12-13T06:17:14;-4.90;85.70
3075;DHT22;1548;51.716;8.748;2022-12-13T06:19:40;-4.90;85.70
3075;DHT22;1548;51.716;8.748;2022-12-13T06:22:05;-4.80;85.70
3075;DHT22;1548;51.716;8.748;2022-12-13T06:24:31;-4.80;85.70
3075;DHT22;1548;51.716;8.748;2022-12-13T06:26:57;-4.90;85.60
3075;DHT22;1548;51.716;8.748;2022-12-13T06:29:24;-4.80;85.60
3075;DHT22;1548;51.716;8.748;2022-12-13T06:31:58;-4.80;85.60
3075;DHT22;1548;51.716;8.748;2022-12-13T06:34:23;-4.80;85.70
3075;DHT22;1548;51.716;8.748;2022-12-13T06:36:49;-4.80;85.60
3075;DHT22;1548;51.716;8.748;2022-12-13T06:39:15;-4.70;85.70
3075;DHT22;1548;51.716;8.748;2022-12-13T06:41:41;-4.70;85.60
3075;DHT22;1548;51.716;8.748;2022-12-13T06:44:07;-4.80;85.50
3075;DHT22;1548;51.716;8.748;2022-12-13T06:46:32;-4.80;85.60
3075;DHT22;1548;51.716;8.748;2022-12-13T06:48:59;-4.80;85.40
3075;DHT22;1548;51.716;8.748;2022-12-13T06:51:24;-4.80;85.50
3075;DHT22;1548;51.716;8.748;2022-12-13T06:53:50;-4.80;85.50
3075;DHT22;1548;51.716;8.748;2022-12-13T06:56:15;-4.80;85.50
3075;DHT22;1548;51.716;8.748;2022-12-13T06:58:42;-4.70;85.40
3075;DHT22;1548;51.716;8.748;2022-12-13T07:03:34;-4.70;85.40
3075;DHT22;1548;51.716;8.748;2022-12-13T07:06:03;-4.70;85.30
3075;DHT22;1548;51.716;8.748;2022-12-13T07:08:29;-4.80;85.30
3075;DHT22;1548;51.716;8.748;2022-12-13T07:10:56;-4.80;85.30
3075;DHT22;1548;51.716;8.748;2022-12-13T07:13:22;-4.80;85.30
3075;DHT22;1548;51.716;8.748;2022-12-13T07:15:48;-4.80;85.40
3075;DHT22;1548;51.716;8.748;2022-12-13T07:18:14;-4.80;85.50
3075;DHT22;1548;51.716;8.748;2022-12-13T07:20:41;-4.80;85.30
3075;DHT22;1548;51.716;8.748;2022-12-13T07:23:08;-4.70;85.30
3075;DHT22;1548;51.716;8.748;2022-12-13T07:25:34;-4.70;85.30
3075;DHT22;1548;51.716;8.748;2022-12-13T07:28:02;-4.70;85.30
3075;DHT22;1548;51.716;8.748;2022-12-13T07:30:32;-4.70;85.10
3075;DHT22;1548;51.716;8.748;2022-12-13T07:32:59;-4.70;85.10
3075;DHT22;1548;51.716;8.748;2022-12-13T07:35:24;-4.60;85.00
3075;DHT22;1548;51.716;8.748;2022-12-13T07:37:50;-4.60;85.10
3075;DHT22;1548;51.716;8.748;2022-12-13T07:40:16;-4.70;85.00
3075;DHT22;1548;51.716;8.748;2022-12-13T07:42:48;-4.70;85.00
3075;DHT22;1548;51.716;8.748;2022-12-13T07:45:14;-4.70;85.00
3075;DHT22;1548;51.716;8.748;2022-12-13T07:47:39;-4.70;85.10
3075;DHT22;1548;51.716;8.748;2022-12-13T07:50:05;-4.70;85.00
3075;DHT22;1548;51.716;8.748;2022-12-13T07:52:31;-4.70;85.00
3075;DHT22;1548;51.716;8.748;2022-12-13T07:54:57;-4.70;84.90
3075;DHT22;1548;51.716;8.748;2022-12-13T07:57:22;-4.70;85.00
3075;DHT22;1548;51.716;8.748;2022-12-13T07:59:48;-4.70;85.00
3075;DHT22;1548;51.716;8.748;2022-12-13T08:02:13;-4.70;84.90
3075;DHT22;1548;51.716;8.748;2022-12-13T08:04:41;-4.70;85.00
3075;DHT22;1548;51.716;8.748;2022-12-13T08:07:07;-4.70;85.00
3075;DHT22;1548;51.716;8.748;2022-12-13T08:09:33;-4.70;85.20
3075;DHT22;1548;51.716;8.748;2022-12-13T08:12:00;-4.80;84.80
3075;DHT22;1548;51.716;8.748;2022-12-13T08:14:26;-4.80;84.90
3075;DHT22;1548;51.716;8.748;2022-12-13T08:16:51;-4.80;84.90
3075;DHT22;1548;51.716;8.748;2022-12-13T08:19:17;-4.70;84.90
3075;DHT22;1548;51.716;8.748;2022-12-13T08:21:43;-4.60;85.00
3075;DHT22;1548;51.716;8.748;2022-12-13T08:24:09;-4.60;84.90
3075;DHT22;1548;51.716;8.748;2022-12-13T08:26:35;-4.60;84.90
3075;DHT22;1548;51.716;8.748;2022-12-13T08:29:01;-4.60;84.90
3075;DHT22;1548;51.716;8.748;2022-12-13T08:31:27;-4.60;84.90
3075;DHT22;1548;51.716;8.748;2022-12-13T08:33:53;-4.60;84.80
3075;DHT22;1548;51.716;8.748;2022-12-13T08:36:18;-4.60;84.60
3075;DHT22;1548;51.716;8.748;2022-12-13T08:38:53;-4.50;84.90
3075;DHT22;1548;51.716;8.748;2022-12-13T08:41:19;-4.50;84.80
3075;DHT22;1548;51.716;8.748;2022-12-13T08:43:45;-4.30;84.90
3075;DHT22;1548;51.716;8.748;2022-12-13T08:46:11;-4.30;84.50
3075;DHT22;1548;51.716;8.748;2022-12-13T08:48:36;-4.30;84.70
3075;DHT22;1548;51.716;8.748;2022-12-13T08:51:05;-4.30;84.50
3075;DHT22;1548;51.716;8.748;2022-12-13T08:53:31;-4.30;84.40
3075;DHT22;1548;51.716;8.748;2022-12-13T08:56:01;-4.20;84.40
3075;DHT22;1548;51.716;8.748;2022-12-13T08:58:28;-4.20;84.40
3075;DHT22;1548;51.716;8.748;2022-12-13T09:00:54;-4.10;84.50
3075;DHT22;1548;51.716;8.748;2022-12-13T09:03:20;-4.10;84.40
3075;DHT22;1548;51.716;8.748;2022-12-13T09:05:46;-4.00;84.50
3075;DHT22;1548;51.716;8.748;2022-12-13T09:08:11;-4.00;84.40
3075;DHT22;1548;51.716;8.748;2022-12-13T09:10:37;-3.90;84.50
3075;DHT22;1548;51.716;8.748;2022-12-13T09:13:03;-3.90;84.30
3075;DHT22;1548;51.716;8.748;2022-12-13T09:15:30;-4.00;84.10
3075;DHT22;1548;51.716;8.748;2022-12-13T09:17:56;-3.90;84.30
3075;DHT22;1548;51.716;8.748;2022-12-13T09:20:23;-3.90;84.40
3075;DHT22;1548;51.716;8.748;2022-12-13T09:22:49;-3.90;84.30
3075;DHT22;1548;51.716;8.748;2022-12-13T09:25:15;-3.90;84.10
3075;DHT22;1548;51.716;8.748;2022-12-13T09:27:41;-3.90;84.30
3075;DHT22;1548;51.716;8.748;2022-12-13T09:30:08;-3.90;84.20
3075;DHT22;1548;51.716;8.748;2022-12-13T09:32:37;-3.90;84.30
3075;DHT22;1548;51.716;8.748;2022-12-13T09:35:03;-3.90;84.50
3075;DHT22;1548;51.716;8.748;2022-12-13T09:37:29;-4.00;84.10
3075;DHT22;1548;51.716;8.748;2022-12-13T09:39:55;-3.90;84.30
3075;DHT22;1548;51.716;8.748;2022-12-13T09:42:23;-4.00;84.10
3075;DHT22;1548;51.716;8.748;2022-12-13T09:44:53;-3.90;84.30
3075;DHT22;1548;51.716;8.748;2022-12-13T09:47:40;-3.80;84.30
3075;DHT22;1548;51.716;8.748;2022-12-13T09:50:12;-3.70;84.20
3075;DHT22;1548;51.716;8.748;2022-12-13T09:52:41;-3.70;84.30
3075;DHT22;1548;51.716;8.748;2022-12-13T09:57:46;-3.70;84.20
3075;DHT22;1548;51.716;8.748;2022-12-13T10:00:15;-3.70;84.10
3075;DHT22;1548;51.716;8.748;2022-12-13T10:02:52;-3.50;84.20
3075;DHT22;1548;51.716;8.748;2022-12-13T10:05:31;-3.40;84.00
3075;DHT22;1548;51.716;8.748;2022-12-13T10:07:59;-3.30;84.10
3075;DHT22;1548;51.716;8.748;2022-12-13T10:10:28;-3.30;84.00
3075;DHT22;1548;51.716;8.748;2022-12-13T10:15:47;-3.20;84.10
3075;DHT22;1548;51.716;8.748;2022-12-13T10:18:28;-3.20;83.80
3075;DHT22;1548;51.716;8.748;2022-12-13T10:20:56;-3.20;83.90
3075;DHT22;1548;51.716;8.748;2022-12-13T10:23:22;-3.10;83.70
3075;DHT22;1548;51.716;8.748;2022-12-13T10:25:53;-3.00;83.60
3075;DHT22;1548;51.716;8.748;2022-12-13T10:28:27;-3.00;83.60
3075;DHT22;1548;51.716;8.748;2022-12-13T10:30:54;-3.10;83.60
3075;DHT22;1548;51.716;8.748;2022-12-13T10:33:24;-3.00;83.60
3075;DHT22;1548;51.716;8.748;2022-12-13T10:36:15;-2.90;83.80
3075;DHT22;1548;51.716;8.748;2022-12-13T10:38:53;-2.80;83.80
3075;DHT22;1548;51.716;8.748;2022-12-13T10:41:30;-2.80;83.60
3075;DHT22;1548;51.716;8.748;2022-12-13T10:46:38;-2.70;83.60
3075;DHT22;1548;51.716;8.748;2022-12-13T10:49:20;-2.70;83.50
3075;DHT22;1548;51.716;8.748;2022-12-13T10:51:48;-2.70;83.60
3075;DHT22;1548;51.716;8.748;2022-12-13T10:54:23;-2.80;83.60
3075;DHT22;1548;51.716;8.748;2022-12-13T10:56:51;-2.90;83.50
3075;DHT22;1548;51.716;8.748;2022-12-13T11:01:56;-2.90;83.90
3075;DHT22;1548;51.716;8.748;2022-12-13T11:04:31;-2.80;84.00
3075;DHT22;1548;51.716;8.748;2022-12-13T11:06:59;-2.80;83.90
3075;DHT22;1548;51.716;8.748;2022-12-13T11:09:29;-2.60;84.00
3075;DHT22;1548;51.716;8.748;2022-12-13T11:11:57;-2.50;83.80
3075;DHT22;1548;51.716;8.748;2022-12-13T11:14:27;-2.40;83.60
3075;DHT22;1548;51.716;8.748;2022-12-13T11:16:56;-2.20;83.70
3075;DHT22;1548;51.716;8.748;2022-12-13T11:19:46;-2.20;83.50
3075;DHT22;1548;51.716;8.748;2022-12-13T11:22:23;-2.00;83.60
3075;DHT22;1548;51.716;8.748;2022-12-13T11:24:57;-2.00;83.60
3075;DHT22;1548;51.716;8.748;2022-12-13T11:30:11;-2.00;83.30
3075;DHT22;1548;51.716;8.748;2022-12-13T11:33:13;-2.00;83.10
3075;DHT22;1548;51.716;8.748;2022-12-13T11:40:52;-2.30;83.20
3075;DHT22;1548;51.716;8.748;2022-12-13T11:45:49;-2.30;83.50
3075;DHT22;1548;51.716;8.748;2022-12-13T11:50:55;-2.10;83.50
3075;DHT22;1548;51.716;8.748;2022-12-13T11:53:44;-2.10;83.60
3075;DHT22;1548;51.716;8.748;2022-12-13T11:56:25;-2.00;83.60
3075;DHT22;1548;51.716;8.748;2022-12-13T12:02:23;-2.00;82.90
3075;DHT22;1548;51.716;8.748;2022-12-13T12:04:55;-1.90;82.80
3075;DHT22;1548;51.716;8.748;2022-12-13T12:07:35;-1.80;82.70
3075;DHT22;1548;51.716;8.748;2022-12-13T12:12:32;-1.70;82.60
3075;DHT22;1548;51.716;8.748;2022-12-13T12:15:04;-1.60;82.30
3075;DHT22;1548;51.716;8.748;2022-12-13T12:17:30;-1.60;82.10
3075;DHT22;1548;51.716;8.748;2022-12-13T12:19:57;-1.60;82.50
3075;DHT22;1548;51.716;8.748;2022-12-13T12:22:38;-1.70;82.20
3075;DHT22;1548;51.716;8.748;2022-12-13T12:25:34;-1.70;82.10
3075;DHT22;1548;51.716;8.748;2022-12-13T12:45:13;-1.90;82.50
3075;DHT22;1548;51.716;8.748;2022-12-13T12:53:45;-1.50;82.20
3075;DHT22;1548;51.716;8.748;2022-12-13T12:59:30;-1.40;81.80
3075;DHT22;1548;51.716;8.748;2022-12-13T13:02:44;-1.50;81.90
3075;DHT22;1548;51.716;8.748;2022-12-13T13:04:49;-1.70;82.00
3075;DHT22;1548;51.716;8.748;2022-12-13T13:07:23;-1.70;82.30
3075;DHT22;1548;51.716;8.748;2022-12-13T13:09:52;-1.70;82.50
3075;DHT22;1548;51.716;8.748;2022-12-13T13:12:19;-1.80;82.40
3075;DHT22;1548;51.716;8.748;2022-12-13T13:14:45;-1.80;82.30
3075;DHT22;1548;51.716;8.748;2022-12-13T13:22:37;-1.80;82.60
3075;DHT22;1548;51.716;8.748;2022-12-13T13:27:30;-1.70;82.60
3075;DHT22;1548;51.716;8.748;2022-12-13T13:30:17;-1.70;82.40
3075;DHT22;1548;51.716;8.748;2022-12-13T13:32:45;-1.60;82.50
3075;DHT22;1548;51.716;8.748;2022-12-13T13:40:44;-1.50;82.50
3075;DHT22;1548;51.716;8.748;2022-12-13T14:29:41;-2.40;82.70
3075;DHT22;1548;51.716;8.748;2022-12-13T14:32:09;-2.60;82.90
3075;DHT22;1548;51.716;8.748;2022-12-13T14:34:43;-2.70;83.10
3075;DHT22;1548;51.716;8.748;2022-12-13T14:37:42;-2.80;83.20
3075;DHT22;1548;51.716;8.748;2022-12-13T14:40:29;-2.90;83.40
3075;DHT22;1548;51.716;8.748;2022-12-13T14:42:56;-2.90;83.40
3075;DHT22;1548;51.716;8.748;2022-12-13T14:45:34;-2.90;83.50
3075;DHT22;1548;51.716;8.748;2022-12-13T14:48:05;-2.90;83.80
3075;DHT22;1548;51.716;8.748;2022-12-13T14:50:37;-2.90;83.80
3075;DHT22;1548;51.716;8.748;2022-12-13T14:53:04;-3.00;83.60
3075;DHT22;1548;51.716;8.748;2022-12-13T14:55:35;-3.00;83.60
3075;DHT22;1548;51.716;8.748;2022-12-13T14:58:12;-3.00;83.60
3075;DHT22;1548;51.716;8.748;2022-12-13T15:00:40;-2.90;83.60
3075;DHT22;1548;51.716;8.748;2022-12-13T15:03:06;-3.00;83.80
3075;DHT22;1548;51.716;8.748;2022-12-13T15:05:42;-3.00;83.60
3075;DHT22;1548;51.716;8.748;2022-12-13T15:08:10;-3.00;83.80
3075;DHT22;1548;51.716;8.748;2022-12-13T15:10:44;-3.10;83.80
3075;DHT22;1548;51.716;8.748;2022-12-13T15:15:58;-3.20;83.80
3075;DHT22;1548;51.716;8.748;2022-12-13T15:18:27;-3.20;83.70
3075;DHT22;1548;51.716;8.748;2022-12-13T15:20:55;-3.30;83.80
3075;DHT22;1548;51.716;8.748;2022-12-13T15:23:30;-3.20;84.00
3075;DHT22;1548;51.716;8.748;2022-12-13T15:25:59;-3.30;84.00
3075;DHT22;1548;51.716;8.748;2022-12-13T15:28:34;-3.40;83.90
3075;DHT22;1548;51.716;8.748;2022-12-13T15:31:00;-3.50;84.10
3075;DHT22;1548;51.716;8.748;2022-12-13T15:33:28;-3.50;84.20
3075;DHT22;1548;51.716;8.748;2022-12-13T15:36:14;-3.40;84.20
3075;DHT22;1548;51.716;8.748;2022-12-13T15:41:25;-3.50;84.30
3075;DHT22;1548;51.716;8.748;2022-12-13T15:43:55;-3.50;84.30
3075;DHT22;1548;51.716;8.748;2022-12-13T15:46:26;-3.50;84.30
3075;DHT22;1548;51.716;8.748;2022-12-13T15:48:54;-3.50;84.30
3075;DHT22;1548;51.716;8.748;2022-12-13T15:51:21;-3.50;84.20
3075;DHT22;1548;51.716;8.748;2022-12-13T15:54:18;-3.60;84.30
3075;DHT22;1548;51.716;8.748;2022-12-13T15:57:15;-3.60;84.20
3075;DHT22;1548;51.716;8.748;2022-12-13T15:59:42;-3.60;84.20
3075;DHT22;1548;51.716;8.748;2022-12-13T16:02:20;-3.60;84.30
3075;DHT22;1548;51.716;8.748;2022-12-13T16:04:48;-3.70;84.20
3075;DHT22;1548;51.716;8.748;2022-12-13T16:07:23;-3.90;84.20
3075;DHT22;1548;51.716;8.748;2022-12-13T16:09:51;-3.90;84.40
3075;DHT22;1548;51.716;8.748;2022-12-13T16:12:26;-3.90;84.50
3075;DHT22;1548;51.716;8.748;2022-12-13T16:15:10;-3.90;84.50
3075;DHT22;1548;51.716;8.748;2022-12-13T16:17:39;-3.90;84.60
3075;DHT22;1548;51.716;8.748;2022-12-13T16:20:11;-3.90;84.60
3075;DHT22;1548;51.716;8.748;2022-12-13T16:22:39;-3.90;84.50
3075;DHT22;1548;51.716;8.748;2022-12-13T16:25:04;-4.00;84.60
3075;DHT22;1548;51.716;8.748;2022-12-13T16:27:30;-4.00;84.60
3075;DHT22;1548;51.716;8.748;2022-12-13T16:29:56;-4.00;84.60
3075;DHT22;1548;51.716;8.748;2022-12-13T16:32:22;-3.90;84.70
3075;DHT22;1548;51.716;8.748;2022-12-13T16:34:47;-3.90;84.70
3075;DHT22;1548;51.716;8.748;2022-12-13T16:37:13;-3.90;84.60
3075;DHT22;1548;51.716;8.748;2022-12-13T16:39:39;-3.90;84.70
3075;DHT22;1548;51.716;8.748;2022-12-13T16:42:05;-4.00;84.60
3075;DHT22;1548;51.716;8.748;2022-12-13T16:44:36;-3.90;84.60
3075;DHT22;1548;51.716;8.748;2022-12-13T16:47:07;-4.00;84.60
3075;DHT22;1548;51.716;8.748;2022-12-13T16:49:33;-3.90;84.60
3075;DHT22;1548;51.716;8.748;2022-12-13T16:51:59;-3.90;84.60
3075;DHT22;1548;51.716;8.748;2022-12-13T16:54:25;-3.90;84.60
3075;DHT22;1548;51.716;8.748;2022-12-13T16:56:52;-3.90;84.50
3075;DHT22;1548;51.716;8.748;2022-12-13T16:59:20;-3.90;84.60
3075;DHT22;1548;51.716;8.748;2022-12-13T17:01:47;-4.00;84.40
3075;DHT22;1548;51.716;8.748;2022-12-13T17:04:15;-4.00;84.60
3075;DHT22;1548;51.716;8.748;2022-12-13T17:06:42;-4.00;84.50
3075;DHT22;1548;51.716;8.748;2022-12-13T17:09:08;-4.00;84.70
3075;DHT22;1548;51.716;8.748;2022-12-13T17:11:34;-4.10;84.50
3075;DHT22;1548;51.716;8.748;2022-12-13T17:14:01;-4.00;84.60
3075;DHT22;1548;51.716;8.748;2022-12-13T17:16:27;-4.00;84.60
3075;DHT22;1548;51.716;8.748;2022-12-13T17:18:53;-4.00;84.80
3075;DHT22;1548;51.716;8.748;2022-12-13T17:21:23;-4.00;84.50
3075;DHT22;1548;51.716;8.748;2022-12-13T17:24:07;-4.00;84.60
3075;DHT22;1548;51.716;8.748;2022-12-13T17:26:32;-3.90;84.60
3075;DHT22;1548;51.716;8.748;2022-12-13T17:28:59;-4.00;84.70
3075;DHT22;1548;51.716;8.748;2022-12-13T17:31:24;-3.90;84.50
3075;DHT22;1548;51.716;8.748;2022-12-13T17:33:50;-3.90;84.50
3075;DHT22;1548;51.716;8.748;2022-12-13T17:36:17;-4.00;84.40
3075;DHT22;1548;51.716;8.748;2022-12-13T17:38:44;-3.90;84.50
3075;DHT22;1548;51.716;8.748;2022-12-13T17:41:14;-3.90;84.40
3075;DHT22;1548;51.716;8.748;2022-12-13T17:43:40;-3.90;84.40
3075;DHT22;1548;51.716;8.748;2022-12-13T17:46:09;-3.90;84.40
3075;DHT22;1548;51.716;8.748;2022-12-13T17:48:35;-3.90;84.40
3075;DHT22;1548;51.716;8.748;2022-12-13T17:51:01;-3.90;84.40
3075;DHT22;1548;51.716;8.748;2022-12-13T17:53:27;-3.90;84.20
3075;DHT22;1548;51.716;8.748;2022-12-13T17:56:00;-3.90;84.40
3075;DHT22;1548;51.716;8.748;2022-12-13T17:58:28;-3.90;84.40
3075;DHT22;1548;51.716;8.748;2022-12-13T18:00:54;-3.90;84.30
3075;DHT22;1548;51.716;8.748;2022-12-13T18:03:20;-3.80;84.30
3075;DHT22;1548;51.716;8.748;2022-12-13T18:05:57;-3.80;84.20
3075;DHT22;1548;51.716;8.748;2022-12-13T18:08:24;-3.70;84.30
3075;DHT22;1548;51.716;8.748;2022-12-13T18:10:57;-3.70;84.30
3075;DHT22;1548;51.716;8.748;2022-12-13T18:13:24;-3.80;84.30
3075;DHT22;1548;51.716;8.748;2022-12-13T18:15:50;-3.80;84.30
3075;DHT22;1548;51.716;8.748;2022-12-13T18:18:16;-3.80;84.10
3075;DHT22;1548;51.716;8.748;2022-12-13T18:20:42;-3.70;84.30
3075;DHT22;1548;51.716;8.748;2022-12-13T18:23:08;-3.70;84.20
3075;DHT22;1548;51.716;8.748;2022-12-13T18:25:34;-3.70;84.20
3075;DHT22;1548;51.716;8.748;2022-12-13T18:28:00;-3.80;84.20
3075;DHT22;1548;51.716;8.748;2022-12-13T18:30:25;-3.80;84.20
3075;DHT22;1548;51.716;8.748;2022-12-13T18:32:52;-3.90;84.30
3075;DHT22;1548;51.716;8.748;2022-12-13T18:35:18;-3.90;84.40
3075;DHT22;1548;51.716;8.748;2022-12-13T18:37:44;-3.90;84.50
3075;DHT22;1548;51.716;8.748;2022-12-13T18:40:10;-3.90;84.40
3075;DHT22;1548;51.716;8.748;2022-12-13T18:42:35;-3.80;84.40